sensor_id;sensor_type;location;lat;lon;timestamp;temperature;humidity
41469;DHT22;27206;47.032;15.484;2022-09-13T00:00:15;13.40;1.00
41469;DHT22;27206;47.032;15.484;2022-09-13T00:02:41;13.40;1.00
41469;DHT22;27206;47.032;15.484;2022-09-13T00:05:07;13.40;1.00
41469;DHT22;27206;47.032;15.484;2022-09-13T00:07:33;13.40;1.00
41469;DHT22;27206;47.032;15.484;2022-09-13T00:09:59;13.40;1.00
41469;DHT22;27206;47.032;15.484;2022-09-13T00:12:24;13.40;1.00
41469;DHT22;27206;47.032;15.484;2022-09-13T00:14:50;13.40;1.00
41469;DHT22;27206;47.032;15.484;2022-09-13T00:17:16;13.30;1.00
41469;DHT22;27206;47.032;15.484;2022-09-13T00:19:41;13.30;1.00
41469;DHT22;27206;47.032;15.484;2022-09-13T00:22:07;13.30;1.00
41469;DHT22;27206;47.032;15.484;2022-09-13T00:24:33;13.20;1.00
41469;DHT22;27206;47.032;15.484;2022-09-13T00:26:59;13.10;1.00
41469;DHT22;27206;47.032;15.484;2022-09-13T00:29:26;13.10;1.00
41469;DHT22;27206;47.032;15.484;2022-09-13T00:31:52;13.00;1.00
41469;DHT22;27206;47.032;15.484;2022-09-13T00:34:18;12.90;1.00
41469;DHT22;27206;47.032;15.484;2022-09-13T00:36:43;13.00;1.00
41469;DHT22;27206;47.032;15.484;2022-09-13T00:39:10;12.90;1.00
41469;DHT22;27206;47.032;15.484;2022-09-13T00:41:36;12.90;1.00
41469;DHT22;27206;47.032;15.484;2022-09-13T00:44:03;12.90;1.00
41469;DHT22;27206;47.032;15.484;2022-09-13T00:49:22;12.90;1.00
41469;DHT22;27206;47.032;15.484;2022-09-13T00:51:51;12.90;1.00
41469;DHT22;27206;47.032;15.484;2022-09-13T00:54:21;12.80;1.00
41469;DHT22;27206;47.032;15.484;2022-09-13T00:56:53;12.80;1.00
41469;DHT22;27206;47.032;15.484;2022-09-13T00:59:27;12.80;1.00
41469;DHT22;27206;47.032;15.484;2022-09-13T01:01:56;12.80;1.00
41469;DHT22;27206;47.032;15.484;2022-09-13T01:04:25;12.70;1.00
41469;DHT22;27206;47.032;15.484;2022-09-13T01:06:54;12.70;1.00
41469;DHT22;27206;47.032;15.484;2022-09-13T01:09:21;12.70;1.00
41469;DHT22;27206;47.032;15.484;2022-09-13T01:12:15;12.70;1.00
41469;DHT22;27206;47.032;15.484;2022-09-13T01:14:43;12.60;1.00
41469;DHT22;27206;47.032;15.484;2022-09-13T01:17:10;12.70;1.00
41469;DHT22;27206;47.032;15.484;2022-09-13T01:19:35;12.60;1.00
41469;DHT22;27206;47.032;15.484;2022-09-13T01:28:02;12.50;1.00
41469;DHT22;27206;47.032;15.484;2022-09-13T01:30:39;12.50;1.00
41469;DHT22;27206;47.032;15.484;2022-09-13T01:36:31;12.40;1.00
41469;DHT22;27206;47.032;15.484;2022-09-13T01:39:13;12.30;1.00
41469;DHT22;27206;47.032;15.484;2022-09-13T01:42:09;12.30;1.00
41469;DHT22;27206;47.032;15.484;2022-09-13T01:47:33;12.20;1.00
41469;DHT22;27206;47.032;15.484;2022-09-13T01:50:11;12.20;1.00
41469;DHT22;27206;47.032;15.484;2022-09-13T01:52:53;12.20;1.00
41469;DHT22;27206;47.032;15.484;2022-09-13T01:57:55;12.10;1.00
41469;DHT22;27206;47.032;15.484;2022-09-13T02:00:22;12.10;1.00
41469;DHT22;27206;47.032;15.484;2022-09-13T02:03:02;12.00;1.00
41469;DHT22;27206;47.032;15.484;2022-09-13T02:05:41;12.00;1.00
41469;DHT22;27206;47.032;15.484;2022-09-13T02:08:12;12.00;1.00
41469;DHT22;27206;47.032;15.484;2022-09-13T02:10:44;12.00;1.00
41469;DHT22;27206;47.032;15.484;2022-09-13T02:13:15;11.90;1.00
41469;DHT22;27206;47.032;15.484;2022-09-13T02:15:52;11.90;1.00
41469;DHT22;27206;47.032;15.484;2022-09-13T02:18:38;11.90;1.00
41469;DHT22;27206;47.032;15.484;2022-09-13T02:21:28;11.90;1.00
41469;DHT22;27206;47.032;15.484;2022-09-13T02:24:02;11.90;1.00
41469;DHT22;27206;47.032;15.484;2022-09-13T02:26:30;11.80;1.00
41469;DHT22;27206;47.032;15.484;2022-09-13T02:28:59;11.80;1.00
41469;DHT22;27206;47.032;15.484;2022-09-13T02:31:35;11.70;1.00
41469;DHT22;27206;47.032;15.484;2022-09-13T02:34:09;11.70;3.00
41469;DHT22;27206;47.032;15.484;2022-09-13T02:36:38;11.60;1.00
41469;DHT22;27206;47.032;15.484;2022-09-13T02:39:16;11.70;2.60
41469;DHT22;27206;47.032;15.484;2022-09-13T02:42:04;11.70;1.00
41469;DHT22;27206;47.032;15.484;2022-09-13T02:44:56;11.80;1.00
41469;DHT22;27206;47.032;15.484;2022-09-13T02:51:11;11.60;1.00
41469;DHT22;27206;47.032;15.484;2022-09-13T02:53:17;11.50;1.00
41469;DHT22;27206;47.032;15.484;2022-09-13T02:56:02;11.70;1.00
41469;DHT22;27206;47.032;15.484;2022-09-13T02:58:55;11.60;1.00
41469;DHT22;27206;47.032;15.484;2022-09-13T03:01:22;11.70;1.00
41469;DHT22;27206;47.032;15.484;2022-09-13T03:03:51;11.60;1.00
41469;DHT22;27206;47.032;15.484;2022-09-13T03:06:22;11.60;1.00
41469;DHT22;27206;47.032;15.484;2022-09-13T03:08:48;11.70;1.00
41469;DHT22;27206;47.032;15.484;2022-09-13T03:11:24;11.60;1.00
41469;DHT22;27206;47.032;15.484;2022-09-13T03:28:32;11.60;1.00
41469;DHT22;27206;47.032;15.484;2022-09-13T03:31:06;11.60;1.00
41469;DHT22;27206;47.032;15.484;2022-09-13T03:34:06;11.50;1.00
41469;DHT22;27206;47.032;15.484;2022-09-13T03:36:36;11.50;1.00
41469;DHT22;27206;47.032;15.484;2022-09-13T03:39:15;11.50;1.00
41469;DHT22;27206;47.032;15.484;2022-09-13T03:41:48;11.50;1.00
41469;DHT22;27206;47.032;15.484;2022-09-13T03:44:18;11.50;1.00
41469;DHT22;27206;47.032;15.484;2022-09-13T03:46:47;11.50;1.00
41469;DHT22;27206;47.032;15.484;2022-09-13T03:49:16;11.40;1.00
41469;DHT22;27206;47.032;15.484;2022-09-13T03:51:45;11.50;1.00
41469;DHT22;27206;47.032;15.484;2022-09-13T03:54:30;11.50;1.00
41469;DHT22;27206;47.032;15.484;2022-09-13T03:57:17;11.50;1.00
41469;DHT22;27206;47.032;15.484;2022-09-13T03:59:53;11.40;1.00
41469;DHT22;27206;47.032;15.484;2022-09-13T04:02:20;11.40;1.00
41469;DHT22;27206;47.032;15.484;2022-09-13T04:04:46;11.30;1.00
41469;DHT22;27206;47.032;15.484;2022-09-13T04:07:15;11.30;1.00
41469;DHT22;27206;47.032;15.484;2022-09-13T04:09:41;11.40;1.00
41469;DHT22;27206;47.032;15.484;2022-09-13T04:12:07;11.40;1.00
41469;DHT22;27206;47.032;15.484;2022-09-13T04:14:36;11.30;1.00
41469;DHT22;27206;47.032;15.484;2022-09-13T04:17:02;11.30;1.00
41469;DHT22;27206;47.032;15.484;2022-09-13T04:19:27;11.20;1.00
41469;DHT22;27206;47.032;15.484;2022-09-13T04:21:54;11.20;1.00
41469;DHT22;27206;47.032;15.484;2022-09-13T04:24:24;11.20;1.00
41469;DHT22;27206;47.032;15.484;2022-09-13T04:26:50;11.20;1.00
41469;DHT22;27206;47.032;15.484;2022-09-13T04:29:16;11.20;1.00
41469;DHT22;27206;47.032;15.484;2022-09-13T04:31:43;11.20;1.00
41469;DHT22;27206;47.032;15.484;2022-09-13T04:34:09;11.20;1.00
41469;DHT22;27206;47.032;15.484;2022-09-13T04:36:34;11.20;2.20
41469;DHT22;27206;47.032;15.484;2022-09-13T04:39:00;11.20;1.00
41469;DHT22;27206;47.032;15.484;2022-09-13T04:41:27;11.10;2.20
41469;DHT22;27206;47.032;15.484;2022-09-13T04:43:53;11.10;4.50
41469;DHT22;27206;47.032;15.484;2022-09-13T04:46:19;11.20;3.50
41469;DHT22;27206;47.032;15.484;2022-09-13T04:48:51;11.20;4.70
41469;DHT22;27206;47.032;15.484;2022-09-13T04:51:17;11.10;1.00
41469;DHT22;27206;47.032;15.484;2022-09-13T04:53:50;11.20;1.00
41469;DHT22;27206;47.032;15.484;2022-09-13T04:56:17;11.20;1.00
41469;DHT22;27206;47.032;15.484;2022-09-13T04:58:44;11.30;4.30
41469;DHT22;27206;47.032;15.484;2022-09-13T05:01:10;11.30;7.60
41469;DHT22;27206;47.032;15.484;2022-09-13T05:03:36;11.30;1.30
41469;DHT22;27206;47.032;15.484;2022-09-13T05:06:06;11.40;1.00
41469;DHT22;27206;47.032;15.484;2022-09-13T05:08:34;11.40;1.00
41469;DHT22;27206;47.032;15.484;2022-09-13T05:11:00;11.40;1.00
41469;DHT22;27206;47.032;15.484;2022-09-13T05:13:26;11.50;1.00
41469;DHT22;27206;47.032;15.484;2022-09-13T05:15:59;11.50;1.00
41469;DHT22;27206;47.032;15.484;2022-09-13T05:18:29;11.60;1.00
41469;DHT22;27206;47.032;15.484;2022-09-13T05:20:56;11.50;1.00
41469;DHT22;27206;47.032;15.484;2022-09-13T05:23:23;11.60;1.00
41469;DHT22;27206;47.032;15.484;2022-09-13T05:26:01;11.60;1.00
41469;DHT22;27206;47.032;15.484;2022-09-13T05:28:32;11.70;1.00
41469;DHT22;27206;47.032;15.484;2022-09-13T05:30:59;11.80;1.00
41469;DHT22;27206;47.032;15.484;2022-09-13T05:33:28;11.80;1.00
41469;DHT22;27206;47.032;15.484;2022-09-13T05:35:54;11.90;1.00
41469;DHT22;27206;47.032;15.484;2022-09-13T05:38:20;12.00;1.00
41469;DHT22;27206;47.032;15.484;2022-09-13T05:40:46;12.00;1.00
41469;DHT22;27206;47.032;15.484;2022-09-13T05:43:13;12.10;1.00
41469;DHT22;27206;47.032;15.484;2022-09-13T05:45:40;12.20;1.00
41469;DHT22;27206;47.032;15.484;2022-09-13T05:48:06;12.20;1.00
41469;DHT22;27206;47.032;15.484;2022-09-13T05:50:36;12.30;1.00
41469;DHT22;27206;47.032;15.484;2022-09-13T05:53:01;12.40;1.00
41469;DHT22;27206;47.032;15.484;2022-09-13T05:55:27;12.50;1.00
41469;DHT22;27206;47.032;15.484;2022-09-13T05:57:53;12.50;1.00
41469;DHT22;27206;47.032;15.484;2022-09-13T06:00:19;12.60;1.00
41469;DHT22;27206;47.032;15.484;2022-09-13T06:02:44;12.70;1.00
41469;DHT22;27206;47.032;15.484;2022-09-13T06:05:10;12.80;1.00
41469;DHT22;27206;47.032;15.484;2022-09-13T06:07:39;12.90;1.00
41469;DHT22;27206;47.032;15.484;2022-09-13T06:10:07;12.90;1.00
41469;DHT22;27206;47.032;15.484;2022-09-13T06:12:32;13.00;1.00
41469;DHT22;27206;47.032;15.484;2022-09-13T06:14:58;13.00;1.00
41469;DHT22;27206;47.032;15.484;2022-09-13T06:17:24;13.10;1.00
41469;DHT22;27206;47.032;15.484;2022-09-13T06:19:50;13.20;1.00
41469;DHT22;27206;47.032;15.484;2022-09-13T06:22:15;13.30;1.00
41469;DHT22;27206;47.032;15.484;2022-09-13T06:24:41;13.40;1.00
41469;DHT22;27206;47.032;15.484;2022-09-13T06:27:07;13.50;1.00
41469;DHT22;27206;47.032;15.484;2022-09-13T06:29:34;13.50;1.00
41469;DHT22;27206;47.032;15.484;2022-09-13T06:32:01;13.60;1.00
41469;DHT22;27206;47.032;15.484;2022-09-13T06:34:27;13.70;1.00
41469;DHT22;27206;47.032;15.484;2022-09-13T06:36:53;13.80;1.00
41469;DHT22;27206;47.032;15.484;2022-09-13T06:39:18;13.90;1.00
41469;DHT22;27206;47.032;15.484;2022-09-13T06:41:44;14.00;1.00
41469;DHT22;27206;47.032;15.484;2022-09-13T06:44:09;14.20;1.00
41469;DHT22;27206;47.032;15.484;2022-09-13T06:46:35;14.30;1.00
41469;DHT22;27206;47.032;15.484;2022-09-13T06:49:04;14.40;1.00
41469;DHT22;27206;47.032;15.484;2022-09-13T06:51:31;14.40;1.00
41469;DHT22;27206;47.032;15.484;2022-09-13T06:53:57;14.40;1.00
41469;DHT22;27206;47.032;15.484;2022-09-13T06:56:35;14.50;1.00
41469;DHT22;27206;47.032;15.484;2022-09-13T06:59:07;14.60;1.00
41469;DHT22;27206;47.032;15.484;2022-09-13T07:04:05;14.70;1.00
41469;DHT22;27206;47.032;15.484;2022-09-13T07:06:33;14.80;1.00
41469;DHT22;27206;47.032;15.484;2022-09-13T07:09:00;14.90;1.00
41469;DHT22;27206;47.032;15.484;2022-09-13T07:11:30;14.90;1.00
41469;DHT22;27206;47.032;15.484;2022-09-13T07:13:58;15.00;1.00
41469;DHT22;27206;47.032;15.484;2022-09-13T07:16:27;15.10;1.00
41469;DHT22;27206;47.032;15.484;2022-09-13T07:19:02;15.10;1.00
41469;DHT22;27206;47.032;15.484;2022-09-13T07:21:30;15.30;1.00
41469;DHT22;27206;47.032;15.484;2022-09-13T07:23:56;15.40;1.00
41469;DHT22;27206;47.032;15.484;2022-09-13T07:26:22;15.50;1.00
41469;DHT22;27206;47.032;15.484;2022-09-13T07:28:51;15.60;1.00
41469;DHT22;27206;47.032;15.484;2022-09-13T07:31:23;15.80;1.00
41469;DHT22;27206;47.032;15.484;2022-09-13T07:33:53;15.90;1.00
41469;DHT22;27206;47.032;15.484;2022-09-13T07:36:20;16.10;1.00
41469;DHT22;27206;47.032;15.484;2022-09-13T07:38:46;16.20;1.00
41469;DHT22;27206;47.032;15.484;2022-09-13T07:41:14;16.30;1.00
41469;DHT22;27206;47.032;15.484;2022-09-13T07:43:41;16.40;1.00
41469;DHT22;27206;47.032;15.484;2022-09-13T07:46:13;16.50;1.00
41469;DHT22;27206;47.032;15.484;2022-09-13T07:48:41;16.60;1.00
41469;DHT22;27206;47.032;15.484;2022-09-13T07:51:16;16.60;1.00
41469;DHT22;27206;47.032;15.484;2022-09-13T07:53:43;16.70;1.00
41469;DHT22;27206;47.032;15.484;2022-09-13T07:56:18;16.90;1.00
41469;DHT22;27206;47.032;15.484;2022-09-13T07:58:45;17.00;1.00
41469;DHT22;27206;47.032;15.484;2022-09-13T08:01:18;17.30;1.00
41469;DHT22;27206;47.032;15.484;2022-09-13T08:03:49;17.40;1.00
41469;DHT22;27206;47.032;15.484;2022-09-13T08:06:15;17.40;1.00
41469;DHT22;27206;47.032;15.484;2022-09-13T08:08:40;17.50;1.00
41469;DHT22;27206;47.032;15.484;2022-09-13T08:11:07;17.70;1.00
41469;DHT22;27206;47.032;15.484;2022-09-13T08:13:33;17.80;1.00
41469;DHT22;27206;47.032;15.484;2022-09-13T08:16:05;17.90;1.00
41469;DHT22;27206;47.032;15.484;2022-09-13T08:18:32;18.20;1.00
41469;DHT22;27206;47.032;15.484;2022-09-13T08:20:59;18.30;1.00
41469;DHT22;27206;47.032;15.484;2022-09-13T08:23:26;18.50;1.00
41469;DHT22;27206;47.032;15.484;2022-09-13T08:25:52;18.50;1.00
41469;DHT22;27206;47.032;15.484;2022-09-13T08:28:20;18.50;1.00
41469;DHT22;27206;47.032;15.484;2022-09-13T08:30:47;18.50;1.00
41469;DHT22;27206;47.032;15.484;2022-09-13T08:33:13;18.60;1.00
41469;DHT22;27206;47.032;15.484;2022-09-13T08:35:39;18.80;1.00
41469;DHT22;27206;47.032;15.484;2022-09-13T08:38:06;18.90;1.00
41469;DHT22;27206;47.032;15.484;2022-09-13T08:40:39;19.00;1.00
41469;DHT22;27206;47.032;15.484;2022-09-13T08:45:30;19.20;1.00
41469;DHT22;27206;47.032;15.484;2022-09-13T08:48:00;19.30;1.00
41469;DHT22;27206;47.032;15.484;2022-09-13T08:50:32;19.50;1.00
41469;DHT22;27206;47.032;15.484;2022-09-13T08:53:27;19.60;1.00
41469;DHT22;27206;47.032;15.484;2022-09-13T08:56:21;19.70;1.00
41469;DHT22;27206;47.032;15.484;2022-09-13T09:07:16;20.50;1.00
41469;DHT22;27206;47.032;15.484;2022-09-13T09:10:00;20.40;1.00
41469;DHT22;27206;47.032;15.484;2022-09-13T09:15:35;20.70;1.00
41469;DHT22;27206;47.032;15.484;2022-09-13T09:18:01;20.80;1.00
41469;DHT22;27206;47.032;15.484;2022-09-13T09:20:45;20.80;1.00
41469;DHT22;27206;47.032;15.484;2022-09-13T09:25:43;21.20;1.00
41469;DHT22;27206;47.032;15.484;2022-09-13T09:28:16;21.20;99.90
41469;DHT22;27206;47.032;15.484;2022-09-13T09:36:48;21.50;99.90
41469;DHT22;27206;47.032;15.484;2022-09-13T09:39:17;21.70;99.90
41469;DHT22;27206;47.032;15.484;2022-09-13T09:41:43;21.60;99.90
41469;DHT22;27206;47.032;15.484;2022-09-13T09:44:19;21.80;99.90
41469;DHT22;27206;47.032;15.484;2022-09-13T09:47:19;21.80;99.90
41469;DHT22;27206;47.032;15.484;2022-09-13T09:55:48;22.20;99.90
41469;DHT22;27206;47.032;15.484;2022-09-13T09:58:16;22.50;99.90
41469;DHT22;27206;47.032;15.484;2022-09-13T10:00:53;22.50;99.90
41469;DHT22;27206;47.032;15.484;2022-09-13T10:03:24;22.50;99.90
41469;DHT22;27206;47.032;15.484;2022-09-13T10:05:50;22.20;99.90
41469;DHT22;27206;47.032;15.484;2022-09-13T10:08:32;22.70;99.90
41469;DHT22;27206;47.032;15.484;2022-09-13T10:10:59;23.00;99.90
41469;DHT22;27206;47.032;15.484;2022-09-13T10:13:27;23.20;99.90
41469;DHT22;27206;47.032;15.484;2022-09-13T10:18:29;23.30;99.90
41469;DHT22;27206;47.032;15.484;2022-09-13T10:23:28;23.90;99.90
41469;DHT22;27206;47.032;15.484;2022-09-13T10:28:26;24.10;99.90
41469;DHT22;27206;47.032;15.484;2022-09-13T10:31:06;24.40;99.90
41469;DHT22;27206;47.032;15.484;2022-09-13T10:33:40;24.90;99.90
41469;DHT22;27206;47.032;15.484;2022-09-13T10:36:18;24.70;99.90
41469;DHT22;27206;47.032;15.484;2022-09-13T10:39:06;24.50;99.90
41469;DHT22;27206;47.032;15.484;2022-09-13T10:41:37;24.60;99.90
41469;DHT22;27206;47.032;15.484;2022-09-13T10:44:08;24.80;99.90
41469;DHT22;27206;47.032;15.484;2022-09-13T10:46:47;25.20;99.90
41469;DHT22;27206;47.032;15.484;2022-09-13T10:49:34;26.10;99.90
41469;DHT22;27206;47.032;15.484;2022-09-13T10:52:00;26.30;99.90
41469;DHT22;27206;47.032;15.484;2022-09-13T10:54:25;26.50;99.90
41469;DHT22;27206;47.032;15.484;2022-09-13T10:56:51;25.90;99.90
41469;DHT22;27206;47.032;15.484;2022-09-13T10:59:22;25.70;99.90
41469;DHT22;27206;47.032;15.484;2022-09-13T11:02:14;25.50;99.90
41469;DHT22;27206;47.032;15.484;2022-09-13T11:19:32;26.30;99.90
41469;DHT22;27206;47.032;15.484;2022-09-13T11:30:23;26.00;99.90
41469;DHT22;27206;47.032;15.484;2022-09-13T11:33:13;26.70;99.90
41469;DHT22;27206;47.032;15.484;2022-09-13T11:41:54;26.60;99.90
41469;DHT22;27206;47.032;15.484;2022-09-13T11:49:44;26.80;99.90
41469;DHT22;27206;47.032;15.484;2022-09-13T11:52:18;26.60;99.90
41469;DHT22;27206;47.032;15.484;2022-09-13T11:55:13;26.10;99.90
41469;DHT22;27206;47.032;15.484;2022-09-13T11:57:44;26.10;99.90
41469;DHT22;27206;47.032;15.484;2022-09-13T12:00:22;25.60;99.90
41469;DHT22;27206;47.032;15.484;2022-09-13T12:05:23;25.40;99.90
41469;DHT22;27206;47.032;15.484;2022-09-13T12:08:02;25.10;99.90
41469;DHT22;27206;47.032;15.484;2022-09-13T12:10:55;24.80;99.90
41469;DHT22;27206;47.032;15.484;2022-09-13T12:13:22;24.90;99.90
41469;DHT22;27206;47.032;15.484;2022-09-13T12:15:56;25.00;99.90
41469;DHT22;27206;47.032;15.484;2022-09-13T12:21:08;24.90;99.90
41469;DHT22;27206;47.032;15.484;2022-09-13T12:26:30;25.50;99.90
41469;DHT22;27206;47.032;15.484;2022-09-13T12:29:02;25.60;99.90
41469;DHT22;27206;47.032;15.484;2022-09-13T12:31:30;25.40;99.90
41469;DHT22;27206;47.032;15.484;2022-09-13T12:33:56;25.50;99.90
41469;DHT22;27206;47.032;15.484;2022-09-13T12:36:30;25.60;99.90
41469;DHT22;27206;47.032;15.484;2022-09-13T12:44:26;25.80;99.90
41469;DHT22;27206;47.032;15.484;2022-09-13T12:52:38;25.80;99.90
41469;DHT22;27206;47.032;15.484;2022-09-13T12:57:46;25.70;99.90
41469;DHT22;27206;47.032;15.484;2022-09-13T13:05:25;25.60;99.90
41469;DHT22;27206;47.032;15.484;2022-09-13T13:07:58;26.00;99.90
41469;DHT22;27206;47.032;15.484;2022-09-13T13:10:28;25.80;99.90
41469;DHT22;27206;47.032;15.484;2022-09-13T13:12:56;25.70;99.90
41469;DHT22;27206;47.032;15.484;2022-09-13T13:55:00;25.00;99.90
41469;DHT22;27206;47.032;15.484;2022-09-13T13:57:51;24.80;99.90
41469;DHT22;27206;47.032;15.484;2022-09-13T14:00:24;24.50;99.90
41469;DHT22;27206;47.032;15.484;2022-09-13T14:05:27;24.40;99.90
41469;DHT22;27206;47.032;15.484;2022-09-13T14:10:44;26.70;99.90
41469;DHT22;27206;47.032;15.484;2022-09-13T14:15:52;28.70;99.90
41469;DHT22;27206;47.032;15.484;2022-09-13T14:18:48;28.20;99.90
41469;DHT22;27206;47.032;15.484;2022-09-13T14:21:27;27.30;99.90
41469;DHT22;27206;47.032;15.484;2022-09-13T14:26:42;28.60;99.90
41469;DHT22;27206;47.032;15.484;2022-09-13T14:29:08;29.80;99.90
41469;DHT22;27206;47.032;15.484;2022-09-13T14:31:35;29.30;99.90
41469;DHT22;27206;47.032;15.484;2022-09-13T14:34:01;29.40;99.90
41469;DHT22;27206;47.032;15.484;2022-09-13T14:36:27;30.20;99.90
41469;DHT22;27206;47.032;15.484;2022-09-13T14:38:57;29.60;99.90
41469;DHT22;27206;47.032;15.484;2022-09-13T14:41:33;30.10;99.90
41469;DHT22;27206;47.032;15.484;2022-09-13T14:44:21;29.30;99.90
41469;DHT22;27206;47.032;15.484;2022-09-13T14:47:01;29.60;99.90
41469;DHT22;27206;47.032;15.484;2022-09-13T14:49:34;29.50;99.90
41469;DHT22;27206;47.032;15.484;2022-09-13T14:52:09;29.20;99.90
41469;DHT22;27206;47.032;15.484;2022-09-13T14:54:42;29.10;99.90
41469;DHT22;27206;47.032;15.484;2022-09-13T14:57:23;29.60;99.90
41469;DHT22;27206;47.032;15.484;2022-09-13T14:59:55;28.80;99.90
41469;DHT22;27206;47.032;15.484;2022-09-13T15:02:28;28.70;99.90
41469;DHT22;27206;47.032;15.484;2022-09-13T15:04:56;29.50;99.90
41469;DHT22;27206;47.032;15.484;2022-09-13T15:07:33;29.80;99.90
41469;DHT22;27206;47.032;15.484;2022-09-13T15:12:51;29.10;99.90
41469;DHT22;27206;47.032;15.484;2022-09-13T15:17:58;29.30;99.90
41469;DHT22;27206;47.032;15.484;2022-09-13T15:20:27;28.40;99.90
41469;DHT22;27206;47.032;15.484;2022-09-13T15:22:53;28.10;99.90
41469;DHT22;27206;47.032;15.484;2022-09-13T15:25:24;27.90;99.90
41469;DHT22;27206;47.032;15.484;2022-09-13T15:27:51;27.70;99.90
41469;DHT22;27206;47.032;15.484;2022-09-13T15:30:23;27.40;99.90
41469;DHT22;27206;47.032;15.484;2022-09-13T15:33:05;27.00;99.90
41469;DHT22;27206;47.032;15.484;2022-09-13T15:35:40;26.50;99.90
41469;DHT22;27206;47.032;15.484;2022-09-13T15:38:27;26.20;99.90
41469;DHT22;27206;47.032;15.484;2022-09-13T15:43:25;25.90;99.90
41469;DHT22;27206;47.032;15.484;2022-09-13T15:45:51;25.80;99.90
41469;DHT22;27206;47.032;15.484;2022-09-13T15:48:23;25.70;99.90
41469;DHT22;27206;47.032;15.484;2022-09-13T15:51:10;25.60;99.90
41469;DHT22;27206;47.032;15.484;2022-09-13T15:53:38;25.50;99.90
41469;DHT22;27206;47.032;15.484;2022-09-13T15:56:05;25.40;99.90
41469;DHT22;27206;47.032;15.484;2022-09-13T15:58:31;25.20;99.90
41469;DHT22;27206;47.032;15.484;2022-09-13T16:00:57;25.20;99.90
41469;DHT22;27206;47.032;15.484;2022-09-13T16:03:23;25.10;99.90
41469;DHT22;27206;47.032;15.484;2022-09-13T16:05:49;25.20;99.90
41469;DHT22;27206;47.032;15.484;2022-09-13T16:08:14;26.00;99.90
41469;DHT22;27206;47.032;15.484;2022-09-13T16:10:40;26.60;99.90
41469;DHT22;27206;47.032;15.484;2022-09-13T16:13:06;27.00;99.90
41469;DHT22;27206;47.032;15.484;2022-09-13T16:15:31;27.20;99.90
41469;DHT22;27206;47.032;15.484;2022-09-13T16:17:57;26.50;99.90
41469;DHT22;27206;47.032;15.484;2022-09-13T16:20:23;25.90;99.90
41469;DHT22;27206;47.032;15.484;2022-09-13T16:22:49;25.50;99.90
41469;DHT22;27206;47.032;15.484;2022-09-13T16:25:15;25.40;99.90
41469;DHT22;27206;47.032;15.484;2022-09-13T16:27:41;25.30;99.90
41469;DHT22;27206;47.032;15.484;2022-09-13T16:30:11;25.20;99.90
41469;DHT22;27206;47.032;15.484;2022-09-13T16:32:37;25.60;99.90
41469;DHT22;27206;47.032;15.484;2022-09-13T16:35:03;25.60;99.90
41469;DHT22;27206;47.032;15.484;2022-09-13T16:37:29;25.20;99.90
41469;DHT22;27206;47.032;15.484;2022-09-13T16:39:58;25.00;99.90
41469;DHT22;27206;47.032;15.484;2022-09-13T16:42:24;24.90;99.90
41469;DHT22;27206;47.032;15.484;2022-09-13T16:44:50;24.80;99.90
41469;DHT22;27206;47.032;15.484;2022-09-13T16:47:16;24.60;99.90
41469;DHT22;27206;47.032;15.484;2022-09-13T16:49:42;24.50;99.90
41469;DHT22;27206;47.032;15.484;2022-09-13T16:52:07;24.30;99.90
41469;DHT22;27206;47.032;15.484;2022-09-13T16:54:34;24.30;99.90
41469;DHT22;27206;47.032;15.484;2022-09-13T16:57:01;24.10;99.90
41469;DHT22;27206;47.032;15.484;2022-09-13T16:59:28;24.00;99.90
41469;DHT22;27206;47.032;15.484;2022-09-13T17:01:55;24.00;99.90
41469;DHT22;27206;47.032;15.484;2022-09-13T17:04:21;23.80;99.90
41469;DHT22;27206;47.032;15.484;2022-09-13T17:06:46;23.60;99.90
41469;DHT22;27206;47.032;15.484;2022-09-13T17:09:12;23.50;99.90
41469;DHT22;27206;47.032;15.484;2022-09-13T17:11:40;23.20;1.00
41469;DHT22;27206;47.032;15.484;2022-09-13T17:14:08;23.10;1.00
41469;DHT22;27206;47.032;15.484;2022-09-13T17:16:41;23.00;1.00
41469;DHT22;27206;47.032;15.484;2022-09-13T17:19:15;23.00;1.00
41469;DHT22;27206;47.032;15.484;2022-09-13T17:21:40;22.90;1.00
41469;DHT22;27206;47.032;15.484;2022-09-13T17:24:06;22.80;1.00
41469;DHT22;27206;47.032;15.484;2022-09-13T17:26:32;22.80;1.00
41469;DHT22;27206;47.032;15.484;2022-09-13T17:28:57;22.70;1.00
41469;DHT22;27206;47.032;15.484;2022-09-13T17:31:23;22.70;1.00
41469;DHT22;27206;47.032;15.484;2022-09-13T17:33:49;22.60;1.00
41469;DHT22;27206;47.032;15.484;2022-09-13T17:36:15;22.50;1.00
41469;DHT22;27206;47.032;15.484;2022-09-13T17:38:41;22.30;1.00
41469;DHT22;27206;47.032;15.484;2022-09-13T17:41:09;22.20;1.00
41469;DHT22;27206;47.032;15.484;2022-09-13T17:43:36;22.20;1.00
41469;DHT22;27206;47.032;15.484;2022-09-13T17:46:07;22.10;1.00
41469;DHT22;27206;47.032;15.484;2022-09-13T17:48:33;22.00;1.00
41469;DHT22;27206;47.032;15.484;2022-09-13T17:51:04;21.90;1.00
41469;DHT22;27206;47.032;15.484;2022-09-13T17:53:39;21.80;1.00
41469;DHT22;27206;47.032;15.484;2022-09-13T17:56:06;21.70;1.00
41469;DHT22;27206;47.032;15.484;2022-09-13T17:58:33;21.60;1.00
41469;DHT22;27206;47.032;15.484;2022-09-13T18:01:03;21.60;1.00
41469;DHT22;27206;47.032;15.484;2022-09-13T18:03:29;21.40;1.00
41469;DHT22;27206;47.032;15.484;2022-09-13T18:05:57;21.40;1.00
41469;DHT22;27206;47.032;15.484;2022-09-13T18:08:24;21.40;1.00
41469;DHT22;27206;47.032;15.484;2022-09-13T18:10:50;21.40;1.00
41469;DHT22;27206;47.032;15.484;2022-09-13T18:13:16;21.40;1.00
41469;DHT22;27206;47.032;15.484;2022-09-13T18:15:42;21.40;1.00
41469;DHT22;27206;47.032;15.484;2022-09-13T18:18:07;21.20;1.00
41469;DHT22;27206;47.032;15.484;2022-09-13T18:20:33;21.10;1.00
41469;DHT22;27206;47.032;15.484;2022-09-13T18:22:59;21.00;1.00
41469;DHT22;27206;47.032;15.484;2022-09-13T18:25:25;21.00;1.00
41469;DHT22;27206;47.032;15.484;2022-09-13T18:27:51;20.90;1.00
41469;DHT22;27206;47.032;15.484;2022-09-13T18:30:17;20.80;1.00
41469;DHT22;27206;47.032;15.484;2022-09-13T18:32:42;20.70;1.00
41469;DHT22;27206;47.032;15.484;2022-09-13T18:35:08;20.70;1.00
41469;DHT22;27206;47.032;15.484;2022-09-13T18:37:34;20.70;1.00
41469;DHT22;27206;47.032;15.484;2022-09-13T18:40:00;20.70;1.00
41469;DHT22;27206;47.032;15.484;2022-09-13T18:42:25;20.40;1.00
41469;DHT22;27206;47.032;15.484;2022-09-13T18:44:51;20.30;1.00
41469;DHT22;27206;47.032;15.484;2022-09-13T18:47:17;20.30;1.00
41469;DHT22;27206;47.032;15.484;2022-09-13T18:49:43;20.30;1.00
41469;DHT22;27206;47.032;15.484;2022-09-13T18:52:09;20.30;1.00
41469;DHT22;27206;47.032;15.484;2022-09-13T18:54:36;20.30;1.00
41469;DHT22;27206;47.032;15.484;2022-09-13T18:57:02;20.40;1.00